createdAt,value
2022-10-18T00:00:43.609Z,57.87
2022-10-18T00:01:43.603Z,57.92
2022-10-18T00:02:44.591Z,60.32
2022-10-18T00:04:43.580Z,59.44
2022-10-18T00:05:43.555Z,54.86
2022-10-18T00:06:43.711Z,56.66
2022-10-18T00:07:43.539Z,59.66
2022-10-18T00:08:43.524Z,57.83
2022-10-18T00:09:43.527Z,55.85
2022-10-18T00:10:43.504Z,59.79
2022-10-18T00:11:43.493Z,57.81
2022-10-18T00:12:43.564Z,58.22
2022-10-18T00:13:43.478Z,60.69
2022-10-18T00:14:43.473Z,57.04
2022-10-18T00:15:43.458Z,59.40
2022-10-18T00:16:43.445Z,60.02
2022-10-18T00:17:43.434Z,57.45
2022-10-18T00:18:43.440Z,56.52
2022-10-18T00:19:43.415Z,59.75
2022-10-18T00:20:43.406Z,57.61
2022-10-18T00:22:43.385Z,59.88
2022-10-18T00:23:43.387Z,60.71
2022-10-18T00:24:43.365Z,56.17
2022-10-18T00:25:43.354Z,59.62
2022-10-18T00:26:43.346Z,59.76
2022-10-18T00:27:43.332Z,58.79
2022-10-18T00:28:43.386Z,57.71
2022-10-18T00:29:43.316Z,59.38
2022-10-18T00:30:43.340Z,61.79
2022-10-18T00:31:43.298Z,56.60
2022-10-18T00:32:43.289Z,58.81
2022-10-18T00:33:43.292Z,61.20
2022-10-18T00:34:43.270Z,59.59
2022-10-18T00:35:43.262Z,59.35
2022-10-18T00:36:43.247Z,60.35
2022-10-18T00:37:43.263Z,59.72
2022-10-18T00:38:43.238Z,58.87
2022-10-18T00:39:43.256Z,57.93
2022-10-18T00:40:43.209Z,58.97
2022-10-18T00:41:43.200Z,59.47
2022-10-18T00:42:43.187Z,61.44
2022-10-18T00:43:43.189Z,61.24
2022-10-18T00:44:43.171Z,55.80
2022-10-18T00:45:43.161Z,59.67
2022-10-18T00:46:43.155Z,57.82
2022-10-18T00:47:43.141Z,59.07
2022-10-18T00:48:43.161Z,59.19
2022-10-18T00:49:43.114Z,60.48
2022-10-18T00:50:43.107Z,61.93
2022-10-18T00:51:43.097Z,59.76
2022-10-18T00:52:43.089Z,59.15
2022-10-18T00:53:43.089Z,57.60
2022-10-18T00:54:43.066Z,57.51
2022-10-18T00:55:43.056Z,60.05
2022-10-18T00:56:43.046Z,56.77
2022-10-18T00:57:43.119Z,54.89
2022-10-18T00:58:43.039Z,56.86
2022-10-18T00:59:43.021Z,57.35
2022-10-18T01:00:43.009Z,56.07
2022-10-18T01:01:43.287Z,60.58
2022-10-18T01:02:42.989Z,56.68
2022-10-18T01:03:42.984Z,59.05
2022-10-18T01:04:53.152Z,57.48
2022-10-18T01:05:42.959Z,53.12
2022-10-18T01:06:43.031Z,55.56
2022-10-18T01:07:42.946Z,55.74
2022-10-18T01:08:42.939Z,59.46
2022-10-18T01:09:42.914Z,55.29
2022-10-18T01:10:42.909Z,59.44
2022-10-18T01:11:42.897Z,55.78
2022-10-18T01:12:42.890Z,59.58
2022-10-18T01:13:42.889Z,59.35
2022-10-18T01:14:42.867Z,57.62
2022-10-18T01:15:42.856Z,57.89
2022-10-18T01:16:42.850Z,54.03
2022-10-18T01:17:42.845Z,56.72
2022-10-18T01:18:42.841Z,58.85
2022-10-18T01:19:42.823Z,61.55
2022-10-18T01:20:42.812Z,60.16
2022-10-18T01:21:42.803Z,60.08
2022-10-18T01:22:42.797Z,60.04
2022-10-18T01:23:42.797Z,55.81
2022-10-18T01:24:42.771Z,59.14
2022-10-18T01:25:42.755Z,58.90
2022-10-18T01:26:43.751Z,55.98
2022-10-18T01:27:42.739Z,59.40
2022-10-18T01:28:42.796Z,59.20
2022-10-18T01:29:42.725Z,57.55
2022-10-18T01:30:42.717Z,58.64
2022-10-18T01:31:42.704Z,59.02
2022-10-18T01:32:42.747Z,57.49
2022-10-18T01:33:42.705Z,58.80
2022-10-18T01:34:42.678Z,57.29
2022-10-18T01:35:42.666Z,60.23
2022-10-18T01:36:42.656Z,59.37
2022-10-18T01:37:42.639Z,58.91
2022-10-18T01:38:42.644Z,59.21
2022-10-18T01:39:42.624Z,58.88
2022-10-18T01:40:42.611Z,59.32
2022-10-18T01:41:42.603Z,58.64
2022-10-18T01:42:42.594Z,58.97
2022-10-18T01:43:42.597Z,55.14
2022-10-18T01:44:42.575Z,55.39
2022-10-18T01:45:42.562Z,60.87
2022-10-18T01:46:42.555Z,55.79
2022-10-18T01:47:42.543Z,58.22
2022-10-18T01:48:42.545Z,59.32
2022-10-18T01:49:42.522Z,56.06
2022-10-18T01:50:42.513Z,57.77
2022-10-18T01:51:42.507Z,57.29
2022-10-18T01:52:42.495Z,55.18
2022-10-18T01:53:42.493Z,56.43
2022-10-18T01:54:42.515Z,57.94
2022-10-18T01:55:42.466Z,53.57
2022-10-18T01:56:42.455Z,55.68
2022-10-18T01:57:42.444Z,54.49
2022-10-18T01:58:42.445Z,57.65
2022-10-18T01:59:42.426Z,52.01
2022-10-18T02:00:42.413Z,51.97
2022-10-18T02:01:42.419Z,55.28
2022-10-18T02:02:42.398Z,55.79
2022-10-18T02:03:42.392Z,55.24
2022-10-18T02:04:42.373Z,53.18
2022-10-18T02:05:42.454Z,55.59
2022-10-18T02:06:42.352Z,59.24
2022-10-18T02:07:42.341Z,55.41
2022-10-18T02:08:42.411Z,61.19
2022-10-18T02:09:43.320Z,60.56
2022-10-18T02:10:42.315Z,61.83
2022-10-18T02:11:42.302Z,62.98
2022-10-18T02:12:42.297Z,59.73
2022-10-18T02:13:42.367Z,60.94
2022-10-18T02:14:42.273Z,67.66
2022-10-18T02:15:42.262Z,64.72
2022-10-18T02:16:42.253Z,66.27
2022-10-18T02:17:42.248Z,65.03
2022-10-18T02:18:42.261Z,66.20
2022-10-18T02:19:42.225Z,65.55
2022-10-18T02:20:42.217Z,65.86
2022-10-18T02:21:42.207Z,67.15
2022-10-18T02:22:42.197Z,66.29
2022-10-18T02:23:42.199Z,63.20
2022-10-18T02:24:42.175Z,63.54
2022-10-18T02:25:42.165Z,64.41
2022-10-18T02:26:42.156Z,64.50
2022-10-18T02:27:42.149Z,64.19
2022-10-18T02:28:42.144Z,66.36
2022-10-18T02:29:42.125Z,62.91
2022-10-18T02:30:42.115Z,63.69
2022-10-18T02:31:42.119Z,65.05
2022-10-18T02:32:42.095Z,66.97
2022-10-18T02:33:42.098Z,65.04
2022-10-18T02:34:42.078Z,62.72
2022-10-18T02:35:42.094Z,63.69
2022-10-18T02:36:42.059Z,63.26
2022-10-18T02:37:42.050Z,65.63
2022-10-18T02:38:42.046Z,68.41
2022-10-18T02:39:42.024Z,65.34
2022-10-18T02:40:42.019Z,64.27
2022-10-18T02:41:42.008Z,65.00
2022-10-18T02:42:42.001Z,67.43
2022-10-18T02:43:41.998Z,64.97
2022-10-18T02:44:41.977Z,66.12
2022-10-18T02:45:41.971Z,67.27
2022-10-18T02:46:41.959Z,69.47
2022-10-18T02:47:41.950Z,68.16
2022-10-18T02:48:41.953Z,66.62
2022-10-18T02:49:41.930Z,65.78
2022-10-18T02:50:41.921Z,67.04
2022-10-18T02:51:41.908Z,67.37
2022-10-18T02:52:41.899Z,66.27
2022-10-18T02:53:41.903Z,67.86
2022-10-18T02:54:41.882Z,62.48
2022-10-18T02:55:41.882Z,65.93
2022-10-18T02:56:41.891Z,67.38
2022-10-18T02:57:41.852Z,65.82
2022-10-18T02:58:41.854Z,63.43
2022-10-18T02:59:41.828Z,64.59
2022-10-18T03:00:41.850Z,63.91
2022-10-18T03:01:41.839Z,62.30
2022-10-18T03:02:41.802Z,64.77
2022-10-18T03:03:41.807Z,62.62
2022-10-18T03:04:41.785Z,64.09
2022-10-18T03:05:41.772Z,62.96
2022-10-18T03:06:41.759Z,64.90
2022-10-18T03:07:41.749Z,63.10
2022-10-18T03:08:41.748Z,65.20
2022-10-18T03:09:42.036Z,62.67
2022-10-18T03:10:41.721Z,60.71
2022-10-18T03:11:41.712Z,63.22
2022-10-18T03:12:41.700Z,63.36
2022-10-18T03:13:41.707Z,64.24
2022-10-18T03:14:41.673Z,62.27
2022-10-18T03:15:42.672Z,62.93
2022-10-18T03:16:41.661Z,63.69
2022-10-18T03:17:41.653Z,62.58
2022-10-18T03:18:41.655Z,62.86
2022-10-18T03:19:41.635Z,62.99
2022-10-18T03:20:41.666Z,61.84
2022-10-18T03:21:41.612Z,63.45
2022-10-18T03:22:41.602Z,63.06
2022-10-18T03:23:41.603Z,63.07
2022-10-18T03:24:41.582Z,63.40
2022-10-18T03:25:44.215Z,62.39
2022-10-18T03:26:41.560Z,65.31
2022-10-18T03:27:41.553Z,65.46
2022-10-18T03:28:41.576Z,65.12
2022-10-18T03:29:41.528Z,63.18
2022-10-18T03:30:41.517Z,63.45
2022-10-18T03:31:41.511Z,63.79
2022-10-18T03:32:41.502Z,63.12
2022-10-18T03:33:41.606Z,64.82
2022-10-18T03:34:41.484Z,61.95
2022-10-18T03:35:41.475Z,63.76
2022-10-18T03:36:41.462Z,63.45
2022-10-18T03:37:41.449Z,61.99
2022-10-18T03:38:41.451Z,62.18
2022-10-18T03:39:41.429Z,63.97
2022-10-18T03:40:41.420Z,64.00
2022-10-18T03:41:41.414Z,62.16
2022-10-18T03:42:41.414Z,64.74
2022-10-18T03:43:41.405Z,65.29
2022-10-18T03:44:41.382Z,67.01
2022-10-18T03:45:41.372Z,67.29
2022-10-18T03:46:41.364Z,65.26
2022-10-18T03:47:41.355Z,68.05
2022-10-18T03:48:41.353Z,67.17
2022-10-18T03:49:41.339Z,66.48
2022-10-18T03:50:41.320Z,66.91
2022-10-18T03:51:41.309Z,66.57
2022-10-18T03:52:41.302Z,62.91
2022-10-18T03:53:41.300Z,63.83
2022-10-18T03:54:41.283Z,63.57
2022-10-18T03:55:41.270Z,62.83
2022-10-18T03:56:41.258Z,63.80
2022-10-18T03:57:41.253Z,62.70
2022-10-18T03:58:41.255Z,62.16
2022-10-18T03:59:41.273Z,64.28
2022-10-18T04:00:41.222Z,63.64
2022-10-18T04:01:41.250Z,62.19
2022-10-18T04:02:41.206Z,66.21
2022-10-18T04:03:41.207Z,66.70
2022-10-18T04:04:41.204Z,65.05
2022-10-18T04:05:41.178Z,65.67
2022-10-18T04:06:41.162Z,65.25
2022-10-18T04:07:41.170Z,64.11
2022-10-18T04:08:41.166Z,66.88
2022-10-18T04:09:41.132Z,66.08
2022-10-18T04:10:41.126Z,64.27
2022-10-18T04:11:41.114Z,65.85
2022-10-18T04:12:41.105Z,67.98
2022-10-18T04:13:41.112Z,69.24
2022-10-18T04:14:41.090Z,67.99
2022-10-18T04:15:41.078Z,68.16
2022-10-18T04:16:41.069Z,66.32
2022-10-18T04:17:41.058Z,68.53
2022-10-18T04:18:41.057Z,67.25
2022-10-18T04:19:41.035Z,67.62
2022-10-18T04:20:41.034Z,66.09
2022-10-18T04:21:41.016Z,67.12
2022-10-18T04:22:41.009Z,65.40
2022-10-18T04:23:41.013Z,63.75
2022-10-18T04:24:40.989Z,65.39
2022-10-18T04:25:41.013Z,64.54
2022-10-18T04:26:40.972Z,64.28
2022-10-18T04:27:40.965Z,63.23
2022-10-18T04:28:41.011Z,63.13
2022-10-18T04:29:40.943Z,62.69
2022-10-18T04:30:40.935Z,64.32
2022-10-18T04:31:40.948Z,62.70
2022-10-18T04:32:40.909Z,65.15
2022-10-18T04:33:40.911Z,64.27
2022-10-18T04:34:40.892Z,63.25
2022-10-18T04:35:40.889Z,64.61
2022-10-18T04:36:40.870Z,63.80
2022-10-18T04:37:40.862Z,62.74
2022-10-18T04:38:40.863Z,63.51
2022-10-18T04:39:40.843Z,65.93
2022-10-18T04:40:40.828Z,66.43
2022-10-18T04:41:40.822Z,65.82
2022-10-18T04:42:40.810Z,66.55
2022-10-18T04:43:40.835Z,64.39
2022-10-18T04:44:40.787Z,64.28
2022-10-18T04:45:40.777Z,63.53
2022-10-18T04:46:40.765Z,62.82
2022-10-18T04:47:40.759Z,65.58
2022-10-18T04:48:40.763Z,64.94
2022-10-18T04:49:40.734Z,64.18
2022-10-18T04:50:40.727Z,66.08
2022-10-18T04:51:40.717Z,64.22
2022-10-18T04:52:40.735Z,64.20
2022-10-18T04:53:40.705Z,63.93
2022-10-18T04:54:40.683Z,66.28
2022-10-18T04:55:40.678Z,65.30
2022-10-18T04:56:40.664Z,66.92
2022-10-18T04:57:40.657Z,62.19
2022-10-18T04:58:40.653Z,66.03
2022-10-18T04:59:40.636Z,62.62
2022-10-18T05:00:40.622Z,64.00
2022-10-18T05:01:40.691Z,64.33
2022-10-18T05:02:40.599Z,66.13
2022-10-18T05:03:40.602Z,64.75
2022-10-18T05:04:40.582Z,64.78
2022-10-18T05:06:00.140Z,66.39
2022-10-18T05:06:42.565Z,66.56
2022-10-18T05:07:40.555Z,66.15
2022-10-18T05:08:40.553Z,66.42
2022-10-18T05:09:40.536Z,66.52
2022-10-18T05:10:40.520Z,67.79
2022-10-18T05:11:40.511Z,65.11
2022-10-18T05:12:40.502Z,64.48
2022-10-18T05:13:40.504Z,64.17
2022-10-18T05:14:40.482Z,65.88
2022-10-18T05:15:40.473Z,66.43
2022-10-18T05:16:40.482Z,65.40
2022-10-18T05:17:40.444Z,63.70
2022-10-18T05:18:40.452Z,63.81
2022-10-18T05:19:40.430Z,64.10
2022-10-18T05:20:40.445Z,63.47
2022-10-18T05:21:40.412Z,63.63
2022-10-18T05:22:40.396Z,64.32
2022-10-18T05:23:40.405Z,63.78
2022-10-18T05:24:40.388Z,64.27
2022-10-18T05:25:40.384Z,64.08
2022-10-18T05:26:40.366Z,64.95
2022-10-18T05:27:40.354Z,62.23
2022-10-18T05:28:41.256Z,64.19
2022-10-18T05:29:41.336Z,63.21
2022-10-18T05:30:40.326Z,64.02
2022-10-18T05:31:40.313Z,64.29
2022-10-18T05:32:40.305Z,63.19
2022-10-18T05:33:40.302Z,63.75
2022-10-18T05:34:40.289Z,63.66
2022-10-18T05:35:40.278Z,62.41
2022-10-18T05:36:40.267Z,63.90
2022-10-18T05:37:40.255Z,63.61
2022-10-18T05:38:40.280Z,63.80
2022-10-18T05:39:40.240Z,61.95
2022-10-18T05:40:40.225Z,64.54
2022-10-18T05:41:40.215Z,64.30
2022-10-18T05:42:40.253Z,64.21
2022-10-18T05:43:40.195Z,62.36
2022-10-18T05:44:40.196Z,62.45
2022-10-18T05:45:40.184Z,64.08
2022-10-18T05:46:40.161Z,62.45
2022-10-18T05:47:40.153Z,62.92
2022-10-18T05:48:40.134Z,61.11
2022-10-18T05:49:40.143Z,62.96
2022-10-18T05:50:40.475Z,62.75
2022-10-18T05:51:40.114Z,63.88
2022-10-18T05:52:40.104Z,64.85
2022-10-18T05:53:40.089Z,63.65
2022-10-18T05:54:40.088Z,64.87
2022-10-18T05:55:40.069Z,66.61
2022-10-18T05:56:40.135Z,66.03
2022-10-18T05:57:40.046Z,66.29
2022-10-18T05:58:40.038Z,65.96
2022-10-18T05:59:40.036Z,67.58
2022-10-18T06:00:40.021Z,65.29
2022-10-18T06:01:40.011Z,65.63
2022-10-18T06:02:40.029Z,64.44
2022-10-18T06:03:39.986Z,67.45
2022-10-18T06:04:39.997Z,65.82
2022-10-18T06:06:40.061Z,65.70
2022-10-18T06:07:39.943Z,66.19
2022-10-18T06:08:39.933Z,65.52
2022-10-18T06:09:39.936Z,66.07
2022-10-18T06:10:39.965Z,66.17
2022-10-18T06:11:39.908Z,64.90
2022-10-18T06:12:39.897Z,64.35
2022-10-18T06:13:39.890Z,65.17
2022-10-18T06:14:39.885Z,64.30
2022-10-18T06:15:39.868Z,63.82
2022-10-18T06:16:39.893Z,64.88
2022-10-18T06:17:39.851Z,65.09
2022-10-18T06:18:39.838Z,65.50
2022-10-18T06:19:39.834Z,65.43
2022-10-18T06:20:39.820Z,65.41
2022-10-18T06:21:39.801Z,64.73
2022-10-18T06:22:39.791Z,64.45
2022-10-18T06:23:39.786Z,62.68
2022-10-18T06:24:39.783Z,65.04
2022-10-18T06:25:39.763Z,63.48
2022-10-18T06:26:39.753Z,63.40
2022-10-18T06:27:39.744Z,64.94
2022-10-18T06:28:39.762Z,66.84
2022-10-18T06:29:39.742Z,67.05
2022-10-18T06:30:39.711Z,66.62
2022-10-18T06:31:39.707Z,66.41
2022-10-18T06:32:39.690Z,64.36
2022-10-18T06:33:39.686Z,64.41
2022-10-18T06:34:39.680Z,63.36
2022-10-18T06:35:39.663Z,63.40
2022-10-18T06:36:39.681Z,62.57
2022-10-18T06:37:39.705Z,62.21
2022-10-18T06:38:39.666Z,62.07
2022-10-18T06:39:39.626Z,63.01
2022-10-18T06:40:39.612Z,62.22
2022-10-18T06:41:39.595Z,62.44
2022-10-18T06:42:39.595Z,61.69
2022-10-18T06:43:39.576Z,63.06
2022-10-18T06:44:39.582Z,62.87
2022-10-18T06:45:39.555Z,62.83
2022-10-18T06:46:39.544Z,62.00
2022-10-18T06:47:39.537Z,62.45
2022-10-18T06:48:39.532Z,64.00
2022-10-18T06:49:39.513Z,63.06
2022-10-18T06:50:39.501Z,62.47
2022-10-18T06:51:39.485Z,63.45
2022-10-18T06:52:40.485Z,63.80
2022-10-18T06:53:44.183Z,63.65
2022-10-18T06:54:41.456Z,63.92
2022-10-18T06:55:39.451Z,62.75
2022-10-18T06:56:39.434Z,62.57
2022-10-18T06:57:39.431Z,64.05
2022-10-18T06:58:39.434Z,63.39
2022-10-18T06:59:39.494Z,63.06
2022-10-18T07:00:39.397Z,62.02
2022-10-18T07:01:39.419Z,61.74
2022-10-18T07:02:39.375Z,62.26
2022-10-18T07:03:39.376Z,63.54
2022-10-18T07:04:39.375Z,62.50
2022-10-18T07:06:05.258Z,61.74
2022-10-18T07:06:39.330Z,61.83
2022-10-18T07:07:39.322Z,61.07
2022-10-18T07:08:39.329Z,60.33
2022-10-18T07:09:39.307Z,59.36
2022-10-18T07:10:39.294Z,60.74
2022-10-18T07:11:39.288Z,59.48
2022-10-18T07:12:39.279Z,60.48
2022-10-18T07:13:39.274Z,58.76
2022-10-18T07:14:39.252Z,60.35
2022-10-18T07:15:39.254Z,59.14
2022-10-18T07:16:39.240Z,59.52
2022-10-18T07:17:39.222Z,59.64
2022-10-18T07:18:39.223Z,59.30
2022-10-18T07:19:39.206Z,60.17
2022-10-18T07:20:39.187Z,57.71
2022-10-18T07:21:39.184Z,57.54
2022-10-18T07:22:39.183Z,56.29
2022-10-18T07:23:39.173Z,55.87
2022-10-18T07:24:39.152Z,58.76
2022-10-18T07:25:39.137Z,58.08
2022-10-18T07:26:39.128Z,55.95
2022-10-18T07:27:39.116Z,54.74
2022-10-18T07:28:39.152Z,55.99
2022-10-18T07:29:39.098Z,56.37
2022-10-18T07:30:39.083Z,55.69
2022-10-18T07:31:39.100Z,55.70
2022-10-18T07:32:39.072Z,53.70
2022-10-18T07:33:39.068Z,52.50
2022-10-18T07:34:39.044Z,53.03
2022-10-18T07:35:39.037Z,54.79
2022-10-18T07:36:39.023Z,55.60
2022-10-18T07:37:39.014Z,54.91
2022-10-18T07:38:39.001Z,55.46
2022-10-18T07:39:39.002Z,54.18
2022-10-18T07:40:38.984Z,53.26
2022-10-18T07:41:38.972Z,51.22
2022-10-18T07:42:39.026Z,52.80
2022-10-18T07:43:38.977Z,53.80
2022-10-18T07:44:38.956Z,53.55
2022-10-18T07:45:38.938Z,53.15
2022-10-18T07:46:38.923Z,54.82
2022-10-18T07:47:39.279Z,56.57
2022-10-18T07:48:38.899Z,54.82
2022-10-18T07:49:38.904Z,62.55
2022-10-18T07:50:38.882Z,59.05
2022-10-18T07:51:38.870Z,54.46
2022-10-18T07:52:38.861Z,54.46
2022-10-18T07:53:38.854Z,55.52
2022-10-18T07:54:38.914Z,55.71
2022-10-18T07:55:38.832Z,56.15
2022-10-18T07:56:38.822Z,57.32
2022-10-18T07:57:38.810Z,58.57
2022-10-18T07:58:38.801Z,59.72
2022-10-18T07:59:38.807Z,59.14
2022-10-18T08:00:38.793Z,58.37
2022-10-18T08:01:38.801Z,58.60
2022-10-18T08:02:38.768Z,58.83
2022-10-18T08:03:38.754Z,60.15
2022-10-18T08:04:38.752Z,58.77
2022-10-18T08:05:38.734Z,58.17
2022-10-18T08:06:38.722Z,59.98
2022-10-18T08:07:38.715Z,59.76
2022-10-18T08:08:38.704Z,59.93
2022-10-18T08:09:38.710Z,59.29
2022-10-18T08:10:38.702Z,58.35
2022-10-18T08:11:38.670Z,61.47
2022-10-18T08:12:38.665Z,59.99
2022-10-18T08:13:38.652Z,59.45
2022-10-18T08:14:38.650Z,58.86
2022-10-18T08:15:38.631Z,59.09
2022-10-18T08:16:38.626Z,59.77
2022-10-18T08:17:38.612Z,60.68
2022-10-18T08:18:38.599Z,59.30
2022-10-18T08:19:44.616Z,56.17
2022-10-18T08:20:39.575Z,60.15
2022-10-18T08:21:38.568Z,60.58
2022-10-18T08:22:38.558Z,61.38
2022-10-18T08:23:38.547Z,60.35
2022-10-18T08:24:38.548Z,61.22
2022-10-18T08:25:38.537Z,59.61
2022-10-18T08:26:38.523Z,58.94
2022-10-18T08:27:38.503Z,61.64
2022-10-18T08:28:38.528Z,61.52
2022-10-18T08:29:38.534Z,61.60
2022-10-18T08:30:38.490Z,61.02
2022-10-18T08:31:38.464Z,59.77
2022-10-18T08:32:38.453Z,60.41
2022-10-18T08:33:38.446Z,61.41
2022-10-18T08:35:39.422Z,61.09
2022-10-18T08:36:38.412Z,62.45
2022-10-18T08:37:38.399Z,59.43
2022-10-18T08:38:38.388Z,60.15
2022-10-18T08:39:38.396Z,60.63
2022-10-18T08:40:38.373Z,61.24
2022-10-18T08:41:38.386Z,61.43
2022-10-18T08:42:38.351Z,61.99
2022-10-18T08:43:38.364Z,62.09
2022-10-18T08:44:38.335Z,60.44
2022-10-18T08:45:42.522Z,61.64
2022-10-18T08:46:39.308Z,62.15
2022-10-18T08:47:38.303Z,60.34
2022-10-18T08:48:38.301Z,58.42
2022-10-18T08:49:38.389Z,58.58
2022-10-18T08:50:38.269Z,60.92
2022-10-18T08:51:38.262Z,59.94
2022-10-18T08:52:38.246Z,58.16
2022-10-18T08:53:39.962Z,59.35
2022-10-18T08:54:38.229Z,57.34
2022-10-18T08:55:38.219Z,59.83
2022-10-18T08:56:38.211Z,58.67
2022-10-18T08:57:38.199Z,58.26
2022-10-18T08:58:38.199Z,59.85
2022-10-18T08:59:38.180Z,59.32
2022-10-18T09:00:38.172Z,60.28
2022-10-18T09:01:38.238Z,58.00
2022-10-18T09:02:38.157Z,60.44
2022-10-18T09:03:38.235Z,58.79
2022-10-18T09:04:38.130Z,57.66
2022-10-18T09:05:38.119Z,58.90
2022-10-18T09:06:38.111Z,57.21
2022-10-18T09:07:38.097Z,57.93
2022-10-18T09:08:38.098Z,59.39
2022-10-18T09:09:38.086Z,58.28
2022-10-18T09:10:38.068Z,57.14
2022-10-18T09:11:38.068Z,58.81
2022-10-18T09:12:38.050Z,57.69
2022-10-18T09:13:38.061Z,57.76
2022-10-18T09:14:38.028Z,57.82
2022-10-18T09:15:38.018Z,57.32
2022-10-18T09:16:38.009Z,57.65
2022-10-18T09:17:38.000Z,55.69
2022-10-18T09:18:38.003Z,57.17
2022-10-18T09:19:37.978Z,55.42
2022-10-18T09:20:37.968Z,55.29
2022-10-18T09:21:37.960Z,55.49
2022-10-18T09:22:37.946Z,57.43
2022-10-18T09:23:37.944Z,58.21
2022-10-18T09:24:37.970Z,57.80
2022-10-18T09:25:37.917Z,56.56
2022-10-18T09:26:37.907Z,56.94
2022-10-18T09:27:37.894Z,59.37
2022-10-18T09:28:37.969Z,56.01
2022-10-18T09:29:37.896Z,57.86
2022-10-18T09:30:37.869Z,58.90
2022-10-18T09:31:37.857Z,58.27
2022-10-18T09:32:37.845Z,59.28
2022-10-18T09:33:37.836Z,58.38
2022-10-18T09:34:37.834Z,58.63
2022-10-18T09:35:37.817Z,56.86
2022-10-18T09:36:37.808Z,59.06
2022-10-18T09:37:37.794Z,57.68
2022-10-18T09:38:37.782Z,58.45
2022-10-18T09:39:37.787Z,56.97
2022-10-18T09:40:37.760Z,56.17
2022-10-18T09:41:37.752Z,59.33
2022-10-18T09:42:37.741Z,59.26
2022-10-18T09:43:37.732Z,58.68
2022-10-18T09:44:37.735Z,58.27
2022-10-18T09:45:37.714Z,57.87
2022-10-18T09:46:37.707Z,59.02
2022-10-18T09:47:37.708Z,58.79
2022-10-18T09:48:37.686Z,59.94
2022-10-18T09:49:37.693Z,59.09
2022-10-18T09:50:37.675Z,58.58
2022-10-18T09:51:37.659Z,57.94
2022-10-18T09:52:37.643Z,59.36
2022-10-18T09:53:37.635Z,60.23
2022-10-18T09:54:37.637Z,56.87
2022-10-18T09:55:37.615Z,59.17
2022-10-18T09:56:40.854Z,59.53
2022-10-18T09:57:37.591Z,59.31
2022-10-18T09:58:37.617Z,60.36
2022-10-18T09:59:37.581Z,60.13
2022-10-18T10:00:37.563Z,59.48
2022-10-18T10:01:37.556Z,59.32
2022-10-18T10:02:37.585Z,59.41
2022-10-18T10:03:37.535Z,60.31
2022-10-18T10:04:37.536Z,60.10
2022-10-18T10:05:37.515Z,59.00
2022-10-18T10:06:37.504Z,59.35
2022-10-18T10:07:37.899Z,59.44
2022-10-18T10:08:37.485Z,58.06
2022-10-18T10:09:37.484Z,57.87
2022-10-18T10:10:38.463Z,60.28
2022-10-18T10:11:37.454Z,58.30
2022-10-18T10:12:37.452Z,56.57
2022-10-18T10:13:37.463Z,57.93
2022-10-18T10:14:37.428Z,58.62
2022-10-18T10:15:39.413Z,55.83
2022-10-18T10:16:37.407Z,58.22
2022-10-18T10:17:37.397Z,58.27
2022-10-18T10:18:37.394Z,56.70
2022-10-18T10:19:37.376Z,54.52
2022-10-18T10:20:37.364Z,58.27
2022-10-18T10:21:37.349Z,57.33
2022-10-18T10:22:37.364Z,54.58
2022-10-18T10:23:37.348Z,56.24
2022-10-18T10:24:37.325Z,54.74
2022-10-18T10:25:37.315Z,55.43
2022-10-18T10:26:37.306Z,55.71
2022-10-18T10:27:37.294Z,55.92
2022-10-18T10:28:37.431Z,54.67
2022-10-18T10:29:44.361Z,55.12
2022-10-18T10:30:39.269Z,56.93
2022-10-18T10:31:37.262Z,55.12
2022-10-18T10:32:37.276Z,56.33
2022-10-18T10:33:37.260Z,56.32
2022-10-18T10:34:39.830Z,55.00
2022-10-18T10:35:54.267Z,55.41
2022-10-18T10:36:39.207Z,56.30
2022-10-18T10:37:37.212Z,56.65
2022-10-18T10:38:37.200Z,56.54
2022-10-18T10:39:37.178Z,56.12
2022-10-18T10:40:37.169Z,56.01
2022-10-18T10:41:37.155Z,56.36
2022-10-18T10:42:37.150Z,55.97
2022-10-18T10:43:38.880Z,56.34
2022-10-18T10:44:38.128Z,56.58
2022-10-18T10:45:37.114Z,56.45
2022-10-18T10:46:37.107Z,56.18
2022-10-18T10:47:37.100Z,56.23
2022-10-18T10:48:37.102Z,56.08
2022-10-18T10:49:41.327Z,54.91
2022-10-18T10:50:39.408Z,54.11
2022-10-18T10:51:37.062Z,54.46
2022-10-18T10:52:37.489Z,55.78
2022-10-18T10:53:37.064Z,56.71
2022-10-18T10:54:37.034Z,55.33
2022-10-18T10:55:37.021Z,53.71
2022-10-18T10:56:37.014Z,58.55
2022-10-18T10:57:37.000Z,55.54
2022-10-18T10:58:37.004Z,56.43
2022-10-18T10:59:37.020Z,57.75
2022-10-18T11:00:36.972Z,54.70
2022-10-18T11:01:36.960Z,56.71
2022-10-18T11:02:36.947Z,53.65
2022-10-18T11:03:36.971Z,55.12
2022-10-18T11:04:36.932Z,54.16
2022-10-18T11:05:36.924Z,55.55
2022-10-18T11:06:36.914Z,55.41
2022-10-18T11:07:36.901Z,56.17
2022-10-18T11:08:36.948Z,54.89
2022-10-18T11:09:36.890Z,55.53
2022-10-18T11:10:36.874Z,53.10
2022-10-18T11:11:36.863Z,55.07
2022-10-18T11:12:36.852Z,54.66
2022-10-18T11:13:36.875Z,55.58
2022-10-18T11:14:36.834Z,52.84
2022-10-18T11:15:36.839Z,56.41
2022-10-18T11:16:36.822Z,57.56
2022-10-18T11:17:36.804Z,53.99
2022-10-18T11:18:36.822Z,54.96
2022-10-18T11:19:36.790Z,56.71
2022-10-18T11:20:36.781Z,54.90
2022-10-18T11:21:36.771Z,56.31
2022-10-18T11:22:36.760Z,56.72
2022-10-18T11:23:36.764Z,56.74
2022-10-18T11:24:36.739Z,56.97
2022-10-18T11:25:36.732Z,56.76
2022-10-18T11:26:40.984Z,58.21
2022-10-18T11:27:38.714Z,54.29
2022-10-18T11:28:36.767Z,54.40
2022-10-18T11:29:36.694Z,56.69
2022-10-18T11:30:36.686Z,57.66
2022-10-18T11:31:36.672Z,57.74
2022-10-18T11:32:36.664Z,58.50
2022-10-18T11:34:03.517Z,58.22
2022-10-18T11:34:38.656Z,57.38
2022-10-18T11:35:36.632Z,56.23
2022-10-18T11:36:36.905Z,55.56
2022-10-18T11:37:38.593Z,58.05
2022-10-18T11:38:37.601Z,59.78
2022-10-18T11:39:36.607Z,56.47
2022-10-18T11:40:36.582Z,57.76
2022-10-18T11:41:36.569Z,56.30
2022-10-18T11:42:39.783Z,54.91
2022-10-18T11:43:57.490Z,57.85
2022-10-18T11:44:38.558Z,55.81
2022-10-18T11:45:36.537Z,57.80
2022-10-18T11:46:36.525Z,54.66
2022-10-18T11:47:36.520Z,54.34
2022-10-18T11:48:36.507Z,57.61
2022-10-18T11:49:36.505Z,56.27
2022-10-18T11:50:36.487Z,58.68
2022-10-18T11:51:50.319Z,58.91
2022-10-18T11:52:38.470Z,56.91
2022-10-18T11:53:36.460Z,55.82
2022-10-18T11:54:36.519Z,57.15
2022-10-18T11:55:36.440Z,58.00
2022-10-18T11:56:36.434Z,57.96
2022-10-18T11:57:36.418Z,58.33
2022-10-18T11:58:36.456Z,58.89
2022-10-18T11:59:36.415Z,57.97
2022-10-18T12:00:36.391Z,58.03
2022-10-18T12:01:36.385Z,56.80
2022-10-18T12:02:36.644Z,56.75
2022-10-18T12:03:36.375Z,56.29
2022-10-18T12:04:40.915Z,56.48
2022-10-18T12:05:37.378Z,54.59
2022-10-18T12:06:36.338Z,57.45
2022-10-18T12:07:36.330Z,57.87
2022-10-18T12:08:36.319Z,57.19
2022-10-18T12:09:36.386Z,59.80
2022-10-18T12:10:52.577Z,59.57
2022-10-18T12:11:38.290Z,58.08
2022-10-18T12:12:36.275Z,57.10
2022-10-18T12:13:36.273Z,57.61
2022-10-18T12:14:36.277Z,57.11
2022-10-18T12:15:36.254Z,58.70
2022-10-18T12:16:51.089Z,57.70
2022-10-18T12:17:51.230Z,58.57
2022-10-18T12:18:38.223Z,58.85
2022-10-18T12:19:36.220Z,56.40
2022-10-18T12:20:36.202Z,59.56
2022-10-18T12:21:36.192Z,60.00
2022-10-18T12:22:36.180Z,57.85
2022-10-18T12:23:36.160Z,58.74
2022-10-18T12:24:37.175Z,58.93
2022-10-18T12:25:36.149Z,59.47
2022-10-18T12:26:36.142Z,59.70
2022-10-18T12:27:36.134Z,60.07
2022-10-18T12:28:36.154Z,59.80
2022-10-18T12:29:36.122Z,61.45
2022-10-18T12:30:36.101Z,59.05
2022-10-18T12:31:36.093Z,60.37
2022-10-18T12:32:36.082Z,61.38
2022-10-18T12:33:36.118Z,58.26
2022-10-18T12:34:36.094Z,60.63
2022-10-18T12:35:36.066Z,61.37
2022-10-18T12:36:36.093Z,61.71
2022-10-18T12:37:36.250Z,61.42
2022-10-18T12:38:36.021Z,59.46
2022-10-18T12:39:43.635Z,60.52
2022-10-18T12:40:38.000Z,61.02
2022-10-18T12:41:35.991Z,59.92
2022-10-18T12:42:35.989Z,61.03
2022-10-18T12:43:35.973Z,60.70
2022-10-18T12:44:35.977Z,60.12
2022-10-18T12:45:35.956Z,61.17
2022-10-18T12:46:35.951Z,61.75
2022-10-18T12:47:36.028Z,61.05
2022-10-18T12:48:35.930Z,60.04
2022-10-18T12:49:36.737Z,60.43
2022-10-18T12:50:35.918Z,60.55
2022-10-18T12:51:35.909Z,61.00
2022-10-18T12:52:35.891Z,60.60
2022-10-18T12:53:35.878Z,59.93
2022-10-18T12:54:35.875Z,59.82
2022-10-18T12:55:35.887Z,61.23
2022-10-18T12:56:35.850Z,59.40